createdAt,value
2018-01-01T09:22:30.960Z,995.3
2018-01-01T09:32:46.057Z,995.4
2018-01-01T09:42:59.847Z,995.4
2018-01-01T09:53:13.233Z,995.5
2018-01-01T10:03:28.094Z,995.5
2018-01-01T10:13:42.351Z,995
2018-01-01T10:23:56.453Z,995.1
2018-01-01T10:34:10.076Z,994.8
2018-01-01T10:44:24.321Z,994.9
2018-01-01T10:54:37.698Z,994.7
2018-01-01T11:04:52.231Z,994.8
2018-01-01T11:15:05.850Z,994.7
2018-01-01T11:25:20.361Z,994.5
2018-01-01T11:35:34.966Z,994.3
2018-01-01T11:45:48.679Z,994.2
2018-01-01T11:56:03.337Z,994.2
2018-01-01T12:06:18.035Z,993.9
2018-01-01T12:16:33.272Z,993.8
2018-01-01T12:26:46.621Z,993.6
2018-01-01T12:37:01.092Z,993.5
2018-01-01T12:47:14.752Z,993.4
2018-01-01T12:57:28.282Z,993.2
2018-01-01T13:07:43.501Z,993.1
2018-01-01T13:17:58.070Z,993
2018-01-01T13:28:11.732Z,992.7
2018-01-01T13:38:25.280Z,992.6
2018-01-01T13:48:39.618Z,992.4
2018-01-01T13:58:53.624Z,992.3
2018-01-01T14:09:06.960Z,992.1
2018-01-01T14:19:20.415Z,992.1
2018-01-01T14:29:35.579Z,991.9
2018-01-01T14:39:49.528Z,991.6
2018-01-01T14:50:03.271Z,991.6
2018-01-01T15:00:18.322Z,991.4
2018-01-01T15:10:32.217Z,991.4
2018-01-01T15:20:46.271Z,991.2
2018-01-01T15:31:01.509Z,991.1
2018-01-01T15:41:15.915Z,991
2018-01-01T15:51:29.768Z,990.9
2018-01-01T16:01:44.975Z,990.8
2018-01-01T16:11:59.348Z,990.8
2018-01-01T16:22:14.296Z,990.7
2018-01-01T16:32:29.246Z,990.6
2018-01-01T16:42:44.258Z,990.7
2018-01-01T16:52:58.672Z,990.5
2018-01-01T17:03:13.363Z,990.5
2018-01-01T17:13:27.347Z,990.5
2018-01-01T17:23:40.677Z,990.4
2018-01-01T17:33:54.326Z,990.3
2018-01-01T17:44:07.760Z,990.2
2018-01-01T17:54:21.289Z,990.1
2018-01-01T18:04:34.976Z,990
2018-01-01T18:14:49.219Z,990
2018-01-01T18:25:02.985Z,989.8
2018-01-01T18:35:18.208Z,989.9
2018-01-01T18:45:33.112Z,989.8
2018-01-01T18:55:46.534Z,989.8
2018-01-01T19:06:00.607Z,989.9
2018-01-01T19:16:14.399Z,989.8
2018-01-01T19:26:28.030Z,989.9
2018-01-01T19:36:42.040Z,989.8
2018-01-01T19:46:55.952Z,989.9
2018-01-01T19:57:09.316Z,990
2018-01-01T20:07:22.594Z,990.1
2018-01-01T20:17:36.728Z,990.2
2018-01-01T20:27:50.256Z,990.3
2018-01-01T20:38:04.000Z,990.4
2018-01-01T20:48:18.346Z,990.5
2018-01-01T20:58:31.944Z,990.5
2018-01-01T21:08:45.378Z,990.6
2018-01-01T21:18:59.686Z,990.8
2018-01-01T21:29:14.410Z,990.9
2018-01-01T21:39:29.184Z,991.2
2018-01-01T21:49:44.435Z,991.3
2018-01-01T21:59:59.471Z,991.6
2018-01-01T22:10:13.988Z,991.8
2018-01-01T22:20:28.405Z,991.9
2018-01-01T22:30:42.088Z,992.2
2018-01-01T22:40:57.175Z,992.3
2018-01-01T22:51:12.148Z,992.5
2018-01-01T23:01:26.721Z,992.8
2018-01-01T23:11:41.969Z,992.9
2018-01-01T23:21:55.586Z,993.2
2018-01-01T23:32:10.046Z,993.3
2018-01-01T23:42:24.544Z,993.5
2018-01-01T23:52:38.809Z,993.7
